sensor_id;sensor_type;location;lat;lon;timestamp;pressure;altitude;pressure_sealevel;temperature;humidity
48862;BME280;34681;49.188;-0.374;2022-07-09T00:01:24;102779.66;;;21.00;59.78
48862;BME280;34681;49.188;-0.374;2022-07-09T00:03:50;102774.78;;;20.94;60.04
48862;BME280;34681;49.188;-0.374;2022-07-09T00:06:17;102777.34;;;20.88;60.17
48862;BME280;34681;49.188;-0.374;2022-07-09T00:08:42;102781.47;;;20.84;60.20
48862;BME280;34681;49.188;-0.374;2022-07-09T00:11:07;102775.03;;;20.83;60.32
48862;BME280;34681;49.188;-0.374;2022-07-09T00:13:33;102776.78;;;20.84;59.87
48862;BME280;34681;49.188;-0.374;2022-07-09T00:15:58;102770.34;;;20.84;59.68
48862;BME280;34681;49.188;-0.374;2022-07-09T00:18:23;102771.09;;;20.86;59.71
48862;BME280;34681;49.188;-0.374;2022-07-09T00:20:49;102765.13;;;20.81;59.86
48862;BME280;34681;49.188;-0.374;2022-07-09T00:23:14;102775.72;;;20.77;59.71
48862;BME280;34681;49.188;-0.374;2022-07-09T00:25:39;102768.41;;;20.76;59.79
48862;BME280;34681;49.188;-0.374;2022-07-09T00:28:05;102775.00;;;20.75;59.81
48862;BME280;34681;49.188;-0.374;2022-07-09T00:30:30;102762.81;;;20.76;59.36
48862;BME280;34681;49.188;-0.374;2022-07-09T00:32:55;102767.88;;;20.72;59.55
48862;BME280;34681;49.188;-0.374;2022-07-09T00:35:21;102769.22;;;20.68;59.40
48862;BME280;34681;49.188;-0.374;2022-07-09T00:37:46;102772.72;;;20.70;59.47
48862;BME280;34681;49.188;-0.374;2022-07-09T00:40:11;102766.56;;;20.59;59.49
48862;BME280;34681;49.188;-0.374;2022-07-09T00:42:37;102757.84;;;20.54;59.73
48862;BME280;34681;49.188;-0.374;2022-07-09T00:45:02;102767.75;;;20.56;59.44
48862;BME280;34681;49.188;-0.374;2022-07-09T00:47:28;102765.97;;;20.47;59.51
48862;BME280;34681;49.188;-0.374;2022-07-09T00:49:54;102764.84;;;20.40;59.61
48862;BME280;34681;49.188;-0.374;2022-07-09T00:52:19;102764.13;;;20.38;59.61
48862;BME280;34681;49.188;-0.374;2022-07-09T00:54:45;102758.41;;;20.39;59.35
48862;BME280;34681;49.188;-0.374;2022-07-09T00:57:11;102754.53;;;20.32;59.49
48862;BME280;34681;49.188;-0.374;2022-07-09T00:59:38;102750.47;;;20.27;59.49
48862;BME280;34681;49.188;-0.374;2022-07-09T01:02:08;102748.03;;;20.24;59.54
48862;BME280;34681;49.188;-0.374;2022-07-09T01:04:34;102741.94;;;20.20;59.58
48862;BME280;34681;49.188;-0.374;2022-07-09T01:07:00;102742.75;;;20.12;59.64
48862;BME280;34681;49.188;-0.374;2022-07-09T01:09:27;102744.09;;;20.08;59.79
48862;BME280;34681;49.188;-0.374;2022-07-09T01:11:53;102735.91;;;20.07;59.88
48862;BME280;34681;49.188;-0.374;2022-07-09T01:14:19;102729.56;;;20.14;59.28
48862;BME280;34681;49.188;-0.374;2022-07-09T01:16:45;102730.44;;;20.15;59.21
48862;BME280;34681;49.188;-0.374;2022-07-09T01:19:10;102730.25;;;20.16;59.05
48862;BME280;34681;49.188;-0.374;2022-07-09T01:21:35;102725.84;;;20.06;59.29
48862;BME280;34681;49.188;-0.374;2022-07-09T01:24:01;102718.84;;;20.02;59.55
48862;BME280;34681;49.188;-0.374;2022-07-09T01:26:27;102710.38;;;20.03;59.24
48862;BME280;34681;49.188;-0.374;2022-07-09T01:28:52;102725.34;;;20.10;59.32
48862;BME280;34681;49.188;-0.374;2022-07-09T01:31:18;102721.56;;;20.11;59.37
48862;BME280;34681;49.188;-0.374;2022-07-09T01:33:43;102717.50;;;20.06;59.39
48862;BME280;34681;49.188;-0.374;2022-07-09T01:36:09;102716.31;;;20.08;59.26
48862;BME280;34681;49.188;-0.374;2022-07-09T01:38:35;102707.03;;;20.00;59.24
48862;BME280;34681;49.188;-0.374;2022-07-09T01:41:01;102714.09;;;19.94;59.28
48862;BME280;34681;49.188;-0.374;2022-07-09T01:43:26;102709.03;;;19.89;59.44
48862;BME280;34681;49.188;-0.374;2022-07-09T01:45:51;102711.81;;;19.89;59.41
48862;BME280;34681;49.188;-0.374;2022-07-09T01:48:17;102710.78;;;19.90;59.33
48862;BME280;34681;49.188;-0.374;2022-07-09T01:50:43;102709.91;;;19.90;59.37
48862;BME280;34681;49.188;-0.374;2022-07-09T01:53:08;102711.75;;;19.81;59.54
48862;BME280;34681;49.188;-0.374;2022-07-09T01:55:34;102699.75;;;19.81;59.63
48862;BME280;34681;49.188;-0.374;2022-07-09T01:57:59;102711.75;;;19.81;59.41
48862;BME280;34681;49.188;-0.374;2022-07-09T02:00:24;102695.94;;;19.82;59.30
48862;BME280;34681;49.188;-0.374;2022-07-09T02:02:53;102706.88;;;19.83;59.29
48862;BME280;34681;49.188;-0.374;2022-07-09T02:05:19;102700.56;;;19.73;59.57
48862;BME280;34681;49.188;-0.374;2022-07-09T02:07:44;102698.88;;;19.80;59.40
48862;BME280;34681;49.188;-0.374;2022-07-09T02:10:09;102692.13;;;19.83;59.22
48862;BME280;34681;49.188;-0.374;2022-07-09T02:12:35;102700.16;;;19.86;59.17
48862;BME280;34681;49.188;-0.374;2022-07-09T02:15:00;102699.44;;;19.84;59.11
48862;BME280;34681;49.188;-0.374;2022-07-09T02:17:26;102705.31;;;19.81;59.34
48862;BME280;34681;49.188;-0.374;2022-07-09T02:19:51;102699.06;;;19.79;59.23
48862;BME280;34681;49.188;-0.374;2022-07-09T02:22:17;102695.41;;;19.78;59.15
48862;BME280;34681;49.188;-0.374;2022-07-09T02:24:42;102694.38;;;19.79;59.26
48862;BME280;34681;49.188;-0.374;2022-07-09T02:27:07;102698.31;;;19.77;59.48
48862;BME280;34681;49.188;-0.374;2022-07-09T02:29:33;102695.53;;;19.77;59.32
48862;BME280;34681;49.188;-0.374;2022-07-09T02:31:58;102695.25;;;19.80;59.30
48862;BME280;34681;49.188;-0.374;2022-07-09T02:34:24;102691.91;;;19.76;59.38
48862;BME280;34681;49.188;-0.374;2022-07-09T02:36:50;102681.19;;;19.81;59.21
48862;BME280;34681;49.188;-0.374;2022-07-09T02:39:16;102688.66;;;19.81;59.16
48862;BME280;34681;49.188;-0.374;2022-07-09T02:41:42;102678.88;;;19.77;59.37
48862;BME280;34681;49.188;-0.374;2022-07-09T02:44:07;102682.53;;;19.77;59.24
48862;BME280;34681;49.188;-0.374;2022-07-09T02:46:32;102683.56;;;19.76;59.39
48862;BME280;34681;49.188;-0.374;2022-07-09T02:48:58;102681.81;;;19.75;59.12
48862;BME280;34681;49.188;-0.374;2022-07-09T02:51:23;102673.50;;;19.75;59.27
48862;BME280;34681;49.188;-0.374;2022-07-09T02:53:48;102679.53;;;19.71;59.33
48862;BME280;34681;49.188;-0.374;2022-07-09T02:56:14;102668.19;;;19.64;59.44
48862;BME280;34681;49.188;-0.374;2022-07-09T02:58:39;102675.66;;;19.63;59.41
48862;BME280;34681;49.188;-0.374;2022-07-09T03:01:05;102667.16;;;19.65;59.36
48862;BME280;34681;49.188;-0.374;2022-07-09T03:03:32;102675.66;;;19.63;59.56
48862;BME280;34681;49.188;-0.374;2022-07-09T03:06:01;102677.22;;;19.66;59.31
48862;BME280;34681;49.188;-0.374;2022-07-09T03:08:26;102682.94;;;19.64;59.27
48862;BME280;34681;49.188;-0.374;2022-07-09T03:10:52;102678.03;;;19.58;59.43
48862;BME280;34681;49.188;-0.374;2022-07-09T03:13:17;102681.84;;;19.57;59.39
48862;BME280;34681;49.188;-0.374;2022-07-09T03:15:43;102683.19;;;19.53;59.57
48862;BME280;34681;49.188;-0.374;2022-07-09T03:18:08;102683.81;;;19.47;59.42
48862;BME280;34681;49.188;-0.374;2022-07-09T03:20:36;102677.03;;;19.50;59.42
48862;BME280;34681;49.188;-0.374;2022-07-09T03:23:05;102683.56;;;19.41;59.64
48862;BME280;34681;49.188;-0.374;2022-07-09T03:25:31;102687.69;;;19.36;59.72
48862;BME280;34681;49.188;-0.374;2022-07-09T03:27:57;102679.75;;;19.42;59.68
48862;BME280;34681;49.188;-0.374;2022-07-09T03:30:23;102685.78;;;19.37;59.61
48862;BME280;34681;49.188;-0.374;2022-07-09T03:32:49;102680.44;;;19.44;59.60
48862;BME280;34681;49.188;-0.374;2022-07-09T03:35:15;102682.50;;;19.42;59.52
48862;BME280;34681;49.188;-0.374;2022-07-09T03:37:40;102692.59;;;19.43;59.31
48862;BME280;34681;49.188;-0.374;2022-07-09T03:40:06;102690.94;;;19.32;59.64
48862;BME280;34681;49.188;-0.374;2022-07-09T03:42:31;102693.94;;;19.39;59.46
48862;BME280;34681;49.188;-0.374;2022-07-09T03:44:57;102690.47;;;19.36;59.35
48862;BME280;34681;49.188;-0.374;2022-07-09T03:47:22;102688.31;;;19.30;59.69
48862;BME280;34681;49.188;-0.374;2022-07-09T03:49:48;102681.41;;;19.34;59.34
48862;BME280;34681;49.188;-0.374;2022-07-09T03:52:13;102678.88;;;19.23;59.45
48862;BME280;34681;49.188;-0.374;2022-07-09T03:54:39;102683.06;;;19.27;59.48
48862;BME280;34681;49.188;-0.374;2022-07-09T03:57:04;102680.44;;;19.26;59.39
48862;BME280;34681;49.188;-0.374;2022-07-09T03:59:30;102679.56;;;19.25;59.45
48862;BME280;34681;49.188;-0.374;2022-07-09T04:01:55;102677.38;;;19.29;59.34
48862;BME280;34681;49.188;-0.374;2022-07-09T04:04:20;102674.72;;;19.27;59.33
48862;BME280;34681;49.188;-0.374;2022-07-09T04:06:46;102678.53;;;19.26;59.49
48862;BME280;34681;49.188;-0.374;2022-07-09T04:09:11;102673.47;;;19.22;59.42
48862;BME280;34681;49.188;-0.374;2022-07-09T04:11:36;102678.88;;;19.23;59.22
48862;BME280;34681;49.188;-0.374;2022-07-09T04:14:03;102680.78;;;19.23;59.53
48862;BME280;34681;49.188;-0.374;2022-07-09T04:16:28;102687.44;;;19.30;59.26
48862;BME280;34681;49.188;-0.374;2022-07-09T04:18:54;102681.72;;;19.31;59.24
48862;BME280;34681;49.188;-0.374;2022-07-09T04:21:20;102681.22;;;19.36;59.33
48862;BME280;34681;49.188;-0.374;2022-07-09T04:23:48;102677.53;;;19.45;58.94
48862;BME280;34681;49.188;-0.374;2022-07-09T04:26:13;102675.84;;;19.52;58.67
48862;BME280;34681;49.188;-0.374;2022-07-09T04:28:38;102682.13;;;19.54;58.86
48862;BME280;34681;49.188;-0.374;2022-07-09T04:31:04;102675.97;;;19.60;58.41
48862;BME280;34681;49.188;-0.374;2022-07-09T04:33:29;102671.03;;;19.72;58.25
48862;BME280;34681;49.188;-0.374;2022-07-09T04:35:54;102664.09;;;19.94;57.75
48862;BME280;34681;49.188;-0.374;2022-07-09T04:38:20;102662.22;;;19.95;57.62
48862;BME280;34681;49.188;-0.374;2022-07-09T04:40:45;102662.50;;;19.91;57.70
48862;BME280;34681;49.188;-0.374;2022-07-09T04:43:11;102672.53;;;19.84;57.96
48862;BME280;34681;49.188;-0.374;2022-07-09T04:45:36;102677.44;;;19.90;57.81
48862;BME280;34681;49.188;-0.374;2022-07-09T04:48:02;102673.44;;;19.93;57.65
48862;BME280;34681;49.188;-0.374;2022-07-09T04:50:27;102681.31;;;19.98;57.64
48862;BME280;34681;49.188;-0.374;2022-07-09T04:52:53;102671.41;;;19.95;57.69
48862;BME280;34681;49.188;-0.374;2022-07-09T04:55:19;102682.66;;;19.93;57.87
48862;BME280;34681;49.188;-0.374;2022-07-09T04:57:45;102677.97;;;19.94;57.88
48862;BME280;34681;49.188;-0.374;2022-07-09T05:00:11;102670.22;;;19.98;57.86
48862;BME280;34681;49.188;-0.374;2022-07-09T05:02:37;102677.56;;;20.07;57.68
48862;BME280;34681;49.188;-0.374;2022-07-09T05:05:04;102665.81;;;20.13;57.64
48862;BME280;34681;49.188;-0.374;2022-07-09T05:07:32;102667.22;;;20.17;57.51
48862;BME280;34681;49.188;-0.374;2022-07-09T05:09:57;102672.88;;;20.59;56.52
48862;BME280;34681;49.188;-0.374;2022-07-09T05:12:23;102676.56;;;21.10;55.75
48862;BME280;34681;49.188;-0.374;2022-07-09T05:14:48;102681.94;;;22.11;54.17
48862;BME280;34681;49.188;-0.374;2022-07-09T05:17:14;102689.28;;;22.67;53.20
48862;BME280;34681;49.188;-0.374;2022-07-09T05:19:39;102688.22;;;23.70;51.86
48862;BME280;34681;49.188;-0.374;2022-07-09T05:22:05;102690.34;;;24.87;50.16
48862;BME280;34681;49.188;-0.374;2022-07-09T05:24:30;102703.19;;;25.84;47.61
48862;BME280;34681;49.188;-0.374;2022-07-09T05:26:55;102705.75;;;26.63;45.46
48862;BME280;34681;49.188;-0.374;2022-07-09T05:29:21;102695.03;;;27.14;45.07
48862;BME280;34681;49.188;-0.374;2022-07-09T05:31:48;102698.63;;;27.62;43.27
48862;BME280;34681;49.188;-0.374;2022-07-09T05:34:14;102700.69;;;28.08;41.49
48862;BME280;34681;49.188;-0.374;2022-07-09T05:36:39;102699.59;;;28.29;40.81
48862;BME280;34681;49.188;-0.374;2022-07-09T05:39:05;102697.88;;;28.48;40.25
48862;BME280;34681;49.188;-0.374;2022-07-09T05:41:32;102705.41;;;28.67;39.26
48862;BME280;34681;49.188;-0.374;2022-07-09T05:47:06;102692.66;;;28.51;38.66
48862;BME280;34681;49.188;-0.374;2022-07-09T05:49:32;102696.16;;;28.47;38.63
48862;BME280;34681;49.188;-0.374;2022-07-09T05:51:57;102691.78;;;28.38;38.94
48862;BME280;34681;49.188;-0.374;2022-07-09T05:54:23;102689.84;;;28.18;39.33
48862;BME280;34681;49.188;-0.374;2022-07-09T05:56:49;102697.63;;;27.96;39.43
48862;BME280;34681;49.188;-0.374;2022-07-09T05:59:14;102691.13;;;27.96;39.47
48862;BME280;34681;49.188;-0.374;2022-07-09T06:01:39;102686.16;;;27.91;40.16
48862;BME280;34681;49.188;-0.374;2022-07-09T06:04:07;102698.28;;;27.92;40.31
48862;BME280;34681;49.188;-0.374;2022-07-09T06:06:33;102690.72;;;27.92;40.20
48862;BME280;34681;49.188;-0.374;2022-07-09T06:08:58;102689.63;;;27.93;40.65
48862;BME280;34681;49.188;-0.374;2022-07-09T06:11:23;102692.22;;;27.95;40.47
48862;BME280;34681;49.188;-0.374;2022-07-09T06:13:49;102690.72;;;28.06;40.53
48862;BME280;34681;49.188;-0.374;2022-07-09T06:16:14;102695.25;;;28.13;40.63
48862;BME280;34681;49.188;-0.374;2022-07-09T06:18:40;102694.84;;;28.30;40.75
48862;BME280;34681;49.188;-0.374;2022-07-09T06:21:05;102699.81;;;28.41;40.61
48862;BME280;34681;49.188;-0.374;2022-07-09T06:23:31;102695.69;;;28.57;40.29
48862;BME280;34681;49.188;-0.374;2022-07-09T06:25:56;102702.38;;;28.62;40.65
48862;BME280;34681;49.188;-0.374;2022-07-09T06:28:21;102707.50;;;28.85;40.74
48862;BME280;34681;49.188;-0.374;2022-07-09T06:30:47;102698.59;;;29.01;40.62
48862;BME280;34681;49.188;-0.374;2022-07-09T06:33:12;102699.03;;;29.05;40.59
48862;BME280;34681;49.188;-0.374;2022-07-09T06:35:39;102701.53;;;29.20;40.95
48862;BME280;34681;49.188;-0.374;2022-07-09T06:38:04;102697.34;;;29.35;40.35
48862;BME280;34681;49.188;-0.374;2022-07-09T06:40:30;102702.72;;;29.50;40.35
48862;BME280;34681;49.188;-0.374;2022-07-09T06:42:55;102705.00;;;29.67;39.76
48862;BME280;34681;49.188;-0.374;2022-07-09T06:45:21;102706.06;;;29.72;39.10
48862;BME280;34681;49.188;-0.374;2022-07-09T06:47:46;102701.06;;;29.74;39.56
48862;BME280;34681;49.188;-0.374;2022-07-09T06:50:12;102707.19;;;29.96;39.30
48862;BME280;34681;49.188;-0.374;2022-07-09T06:52:37;102697.78;;;30.02;39.02
48862;BME280;34681;49.188;-0.374;2022-07-09T06:55:03;102690.53;;;29.56;38.98
48862;BME280;34681;49.188;-0.374;2022-07-09T06:57:28;102693.25;;;29.38;40.23
48862;BME280;34681;49.188;-0.374;2022-07-09T06:59:55;102700.31;;;29.85;40.08
48862;BME280;34681;49.188;-0.374;2022-07-09T07:02:21;102708.69;;;29.99;39.78
48862;BME280;34681;49.188;-0.374;2022-07-09T07:04:46;102711.81;;;29.84;39.97
48862;BME280;34681;49.188;-0.374;2022-07-09T07:07:11;102709.50;;;30.06;40.37
48862;BME280;34681;49.188;-0.374;2022-07-09T07:09:37;102706.69;;;30.06;39.68
48862;BME280;34681;49.188;-0.374;2022-07-09T07:12:03;102707.03;;;30.41;39.44
48862;BME280;34681;49.188;-0.374;2022-07-09T07:14:28;102710.72;;;30.85;39.25
48862;BME280;34681;49.188;-0.374;2022-07-09T07:16:53;102712.47;;;31.22;38.65
48862;BME280;34681;49.188;-0.374;2022-07-09T07:19:19;102711.72;;;31.09;38.28
48862;BME280;34681;49.188;-0.374;2022-07-09T07:21:48;102716.81;;;31.18;38.65
48862;BME280;34681;49.188;-0.374;2022-07-09T07:24:14;102718.50;;;31.26;38.51
48862;BME280;34681;49.188;-0.374;2022-07-09T07:26:39;102715.53;;;31.51;38.69
48862;BME280;34681;49.188;-0.374;2022-07-09T07:29:05;102717.78;;;31.79;38.07
48862;BME280;34681;49.188;-0.374;2022-07-09T07:31:30;102720.16;;;31.64;38.19
48862;BME280;34681;49.188;-0.374;2022-07-09T07:33:56;102713.50;;;32.00;38.06
48862;BME280;34681;49.188;-0.374;2022-07-09T07:36:22;102723.31;;;32.51;37.88
48862;BME280;34681;49.188;-0.374;2022-07-09T07:38:47;102716.84;;;32.08;36.81
48862;BME280;34681;49.188;-0.374;2022-07-09T07:41:13;102723.72;;;32.01;37.54
48862;BME280;34681;49.188;-0.374;2022-07-09T07:43:39;102731.69;;;32.34;37.51
48862;BME280;34681;49.188;-0.374;2022-07-09T07:46:04;102733.00;;;33.02;36.89
48862;BME280;34681;49.188;-0.374;2022-07-09T07:48:30;102732.63;;;33.62;35.95
48862;BME280;34681;49.188;-0.374;2022-07-09T07:50:56;102733.84;;;33.94;35.57
48862;BME280;34681;49.188;-0.374;2022-07-09T07:53:21;102731.91;;;34.00;34.56
48862;BME280;34681;49.188;-0.374;2022-07-09T07:55:47;102734.97;;;33.81;34.03
48862;BME280;34681;49.188;-0.374;2022-07-09T07:58:12;102732.09;;;33.65;34.52
48862;BME280;34681;49.188;-0.374;2022-07-09T08:00:38;102729.81;;;33.78;33.92
48862;BME280;34681;49.188;-0.374;2022-07-09T08:03:03;102724.78;;;34.14;33.66
48862;BME280;34681;49.188;-0.374;2022-07-09T08:05:29;102729.91;;;34.46;33.32
48862;BME280;34681;49.188;-0.374;2022-07-09T08:07:54;102721.84;;;34.26;33.88
48862;BME280;34681;49.188;-0.374;2022-07-09T08:10:20;102729.28;;;34.10;33.84
48862;BME280;34681;49.188;-0.374;2022-07-09T08:12:45;102719.38;;;34.29;33.33
48862;BME280;34681;49.188;-0.374;2022-07-09T08:15:11;102720.31;;;34.69;33.37
48862;BME280;34681;49.188;-0.374;2022-07-09T08:17:36;102727.59;;;35.20;32.66
48862;BME280;34681;49.188;-0.374;2022-07-09T08:20:02;102720.22;;;35.95;31.78
48862;BME280;34681;49.188;-0.374;2022-07-09T08:22:28;102723.91;;;36.27;30.63
48862;BME280;34681;49.188;-0.374;2022-07-09T08:24:53;102722.44;;;36.20;30.50
48862;BME280;34681;49.188;-0.374;2022-07-09T08:27:18;102730.97;;;36.52;30.16
48862;BME280;34681;49.188;-0.374;2022-07-09T08:29:44;102723.53;;;36.88;29.58
48862;BME280;34681;49.188;-0.374;2022-07-09T08:32:09;102722.81;;;37.23;28.63
48862;BME280;34681;49.188;-0.374;2022-07-09T08:34:34;102729.25;;;37.61;28.33
48862;BME280;34681;49.188;-0.374;2022-07-09T08:37:00;102723.00;;;37.74;27.92
48862;BME280;34681;49.188;-0.374;2022-07-09T08:39:25;102721.66;;;38.28;27.45
48862;BME280;34681;49.188;-0.374;2022-07-09T08:41:50;102707.63;;;38.11;27.72
48862;BME280;34681;49.188;-0.374;2022-07-09T08:44:17;102712.44;;;38.82;27.05
48862;BME280;34681;49.188;-0.374;2022-07-09T08:46:44;102711.38;;;38.32;26.74
48862;BME280;34681;49.188;-0.374;2022-07-09T08:49:11;102713.06;;;38.17;27.44
48862;BME280;34681;49.188;-0.374;2022-07-09T08:51:37;102709.63;;;38.31;26.66
48862;BME280;34681;49.188;-0.374;2022-07-09T08:54:03;102711.03;;;38.59;27.33
48862;BME280;34681;49.188;-0.374;2022-07-09T08:56:29;102715.94;;;39.38;26.33
48862;BME280;34681;49.188;-0.374;2022-07-09T08:58:54;102709.16;;;39.19;25.91
48862;BME280;34681;49.188;-0.374;2022-07-09T09:01:19;102712.91;;;39.09;25.84
48862;BME280;34681;49.188;-0.374;2022-07-09T09:03:45;102705.09;;;39.30;25.74
48862;BME280;34681;49.188;-0.374;2022-07-09T09:06:11;102710.03;;;39.69;25.25
48862;BME280;34681;49.188;-0.374;2022-07-09T09:08:39;102693.31;;;39.42;25.42
48862;BME280;34681;49.188;-0.374;2022-07-09T09:11:13;102695.06;;;39.82;25.44
48862;BME280;34681;49.188;-0.374;2022-07-09T09:13:47;102698.38;;;39.94;25.64
48862;BME280;34681;49.188;-0.374;2022-07-09T09:16:14;102699.63;;;39.83;24.98
48862;BME280;34681;49.188;-0.374;2022-07-09T09:21:08;102699.22;;;40.00;24.56
48862;BME280;34681;49.188;-0.374;2022-07-09T09:26:14;102705.22;;;41.76;23.18
48862;BME280;34681;49.188;-0.374;2022-07-09T09:28:54;102704.31;;;42.46;22.60
48862;BME280;34681;49.188;-0.374;2022-07-09T09:31:24;102712.47;;;41.68;23.07
48862;BME280;34681;49.188;-0.374;2022-07-09T09:33:51;102707.16;;;42.32;22.49
48862;BME280;34681;49.188;-0.374;2022-07-09T09:39:20;102723.16;;;42.52;22.54
48862;BME280;34681;49.188;-0.374;2022-07-09T09:41:51;102721.13;;;41.87;22.98
48862;BME280;34681;49.188;-0.374;2022-07-09T09:46:46;102712.47;;;37.07;28.40
48862;BME280;34681;49.188;-0.374;2022-07-09T09:49:13;102718.47;;;35.18;31.00
48862;BME280;34681;49.188;-0.374;2022-07-09T09:52:00;102711.50;;;33.86;33.08
48862;BME280;34681;49.188;-0.374;2022-07-09T09:54:27;102706.69;;;32.31;36.01
48862;BME280;34681;49.188;-0.374;2022-07-09T09:56:53;102716.16;;;31.23;37.34
48862;BME280;34681;49.188;-0.374;2022-07-09T09:59:20;102715.19;;;30.92;37.91
48862;BME280;34681;49.188;-0.374;2022-07-09T10:01:46;102716.31;;;30.23;39.49
48862;BME280;34681;49.188;-0.374;2022-07-09T10:04:13;102706.91;;;29.34;41.46
48862;BME280;34681;49.188;-0.374;2022-07-09T10:06:39;102705.88;;;28.51;43.52
48862;BME280;34681;49.188;-0.374;2022-07-09T10:09:06;102713.25;;;28.39;43.86
48862;BME280;34681;49.188;-0.374;2022-07-09T10:14:04;102711.50;;;27.98;44.81
48862;BME280;34681;49.188;-0.374;2022-07-09T10:16:35;102709.06;;;27.68;45.56
48862;BME280;34681;49.188;-0.374;2022-07-09T10:19:01;102700.56;;;27.49;45.75
48862;BME280;34681;49.188;-0.374;2022-07-09T10:21:36;102719.16;;;27.02;46.94
48862;BME280;34681;49.188;-0.374;2022-07-09T10:24:03;102703.44;;;26.66;47.69
48862;BME280;34681;49.188;-0.374;2022-07-09T10:29:27;102714.88;;;26.71;48.19
48862;BME280;34681;49.188;-0.374;2022-07-09T10:31:53;102716.44;;;26.74;48.29
48862;BME280;34681;49.188;-0.374;2022-07-09T10:37:00;102700.81;;;26.37;47.99
48862;BME280;34681;49.188;-0.374;2022-07-09T10:39:26;102702.03;;;26.49;48.64
48862;BME280;34681;49.188;-0.374;2022-07-09T10:42:18;102699.59;;;26.74;48.24
48862;BME280;34681;49.188;-0.374;2022-07-09T10:44:45;102696.41;;;26.49;48.13
48862;BME280;34681;49.188;-0.374;2022-07-09T10:47:11;102695.50;;;26.42;48.38
48862;BME280;34681;49.188;-0.374;2022-07-09T10:49:37;102702.25;;;26.54;48.42
48862;BME280;34681;49.188;-0.374;2022-07-09T10:52:04;102706.78;;;26.55;48.41
48862;BME280;34681;49.188;-0.374;2022-07-09T10:54:30;102697.97;;;26.58;47.40
48862;BME280;34681;49.188;-0.374;2022-07-09T10:56:56;102693.56;;;26.42;48.06
48862;BME280;34681;49.188;-0.374;2022-07-09T10:59:22;102692.75;;;26.48;47.95
48862;BME280;34681;49.188;-0.374;2022-07-09T11:01:48;102693.22;;;26.58;47.91
48862;BME280;34681;49.188;-0.374;2022-07-09T11:06:50;102692.47;;;26.43;47.43
48862;BME280;34681;49.188;-0.374;2022-07-09T11:09:15;102686.84;;;26.43;47.64
48862;BME280;34681;49.188;-0.374;2022-07-09T11:11:42;102686.50;;;26.53;47.63
48862;BME280;34681;49.188;-0.374;2022-07-09T11:14:11;102695.88;;;26.67;47.03
48862;BME280;34681;49.188;-0.374;2022-07-09T11:16:37;102690.63;;;26.57;47.27
48862;BME280;34681;49.188;-0.374;2022-07-09T11:19:16;102681.66;;;26.75;46.08
48862;BME280;34681;49.188;-0.374;2022-07-09T11:21:43;102690.28;;;26.73;46.35
48862;BME280;34681;49.188;-0.374;2022-07-09T11:24:19;102686.09;;;26.63;46.73
48862;BME280;34681;49.188;-0.374;2022-07-09T11:26:48;102695.94;;;26.45;48.07
48862;BME280;34681;49.188;-0.374;2022-07-09T11:29:16;102693.03;;;26.32;48.33
48862;BME280;34681;49.188;-0.374;2022-07-09T11:31:51;102697.75;;;26.31;48.90
48862;BME280;34681;49.188;-0.374;2022-07-09T11:34:18;102697.66;;;26.46;48.70
48862;BME280;34681;49.188;-0.374;2022-07-09T11:39:22;102699.28;;;26.34;48.63
48862;BME280;34681;49.188;-0.374;2022-07-09T11:41:48;102703.41;;;25.89;49.79
48862;BME280;34681;49.188;-0.374;2022-07-09T11:46:45;102679.19;;;26.02;49.27
48862;BME280;34681;49.188;-0.374;2022-07-09T11:49:14;102685.09;;;26.14;49.29
48862;BME280;34681;49.188;-0.374;2022-07-09T11:51:40;102692.53;;;26.28;48.44
48862;BME280;34681;49.188;-0.374;2022-07-09T11:54:07;102696.69;;;26.32;47.88
48862;BME280;34681;49.188;-0.374;2022-07-09T11:56:42;102692.25;;;26.45;47.84
48862;BME280;34681;49.188;-0.374;2022-07-09T11:59:10;102697.34;;;26.35;47.87
48862;BME280;34681;49.188;-0.374;2022-07-09T12:01:36;102696.63;;;26.26;47.08
48862;BME280;34681;49.188;-0.374;2022-07-09T12:04:02;102688.00;;;26.27;47.83
48862;BME280;34681;49.188;-0.374;2022-07-09T12:06:28;102696.75;;;26.39;47.76
48862;BME280;34681;49.188;-0.374;2022-07-09T12:09:03;102699.72;;;26.38;47.94
48862;BME280;34681;49.188;-0.374;2022-07-09T12:11:29;102691.81;;;26.20;48.20
48862;BME280;34681;49.188;-0.374;2022-07-09T12:13:56;102690.81;;;25.99;48.50
48862;BME280;34681;49.188;-0.374;2022-07-09T12:16:21;102694.22;;;25.95;48.30
48862;BME280;34681;49.188;-0.374;2022-07-09T12:18:47;102691.75;;;25.85;47.25
48862;BME280;34681;49.188;-0.374;2022-07-09T12:21:12;102689.16;;;25.84;48.58
48862;BME280;34681;49.188;-0.374;2022-07-09T12:23:37;102683.34;;;25.85;48.90
48862;BME280;34681;49.188;-0.374;2022-07-09T12:26:03;102692.00;;;25.69;49.13
48862;BME280;34681;49.188;-0.374;2022-07-09T12:28:28;102690.06;;;25.69;48.67
48862;BME280;34681;49.188;-0.374;2022-07-09T12:30:54;102678.31;;;25.59;49.91
48862;BME280;34681;49.188;-0.374;2022-07-09T12:33:19;102673.72;;;25.73;49.91
48862;BME280;34681;49.188;-0.374;2022-07-09T12:35:44;102678.72;;;25.77;48.96
48862;BME280;34681;49.188;-0.374;2022-07-09T12:38:10;102674.31;;;25.68;48.18
48862;BME280;34681;49.188;-0.374;2022-07-09T12:40:35;102678.53;;;25.79;48.83
48862;BME280;34681;49.188;-0.374;2022-07-09T12:43:00;102679.38;;;25.58;48.63
48862;BME280;34681;49.188;-0.374;2022-07-09T12:45:26;102679.31;;;25.73;48.78
48862;BME280;34681;49.188;-0.374;2022-07-09T12:47:52;102677.25;;;25.82;47.55
48862;BME280;34681;49.188;-0.374;2022-07-09T12:50:17;102681.13;;;25.59;48.72
48862;BME280;34681;49.188;-0.374;2022-07-09T12:52:42;102677.81;;;25.56;47.81
48862;BME280;34681;49.188;-0.374;2022-07-09T12:55:08;102659.53;;;25.38;48.45
48862;BME280;34681;49.188;-0.374;2022-07-09T12:57:35;102663.31;;;25.67;48.34
48862;BME280;34681;49.188;-0.374;2022-07-09T13:00:00;102671.34;;;25.98;46.97
48862;BME280;34681;49.188;-0.374;2022-07-09T13:02:26;102671.06;;;26.14;45.09
48862;BME280;34681;49.188;-0.374;2022-07-09T13:04:52;102665.88;;;26.11;46.01